EPZG/IEG METAR and TAF weather

Enter ICAO airport designator
Station Type Date Time Source
EPZG METAR 2022/12/08 12:00 UTC NOAA

EPZG 081200Z 18007KT 9000 BKN014 03/03 Q1007


Station Type Date Time Source
EPZG Decoded METAR 2022/12/08 12:00 UTC NOAA

Zielona Gora, Poland (EPZG) 51-56N 015-32E 192M
Dec 08, 2022 - 07:00 AM EST / 2022.12.08 1200 UTC
Wind: from the S (180 degrees) at 8 MPH (7 KT):0
Visibility: 5 mile(s):0
Sky conditions: mostly cloudy
Temperature: 37 F (3 C)
Dew Point: 37 F (3 C)
Relative Humidity: 100%
Pressure (altimeter): 29.74 in. Hg (1007 hPa)
ob: EPZG 081200Z 18007KT 9000 BKN014 03/03 Q1007
cycle: 12

Station Type Date Time Source
EPZG TAF 2012/06/28 21:49 UTC NOAA

TAF EPZG 282000Z 2821/2906 VRB02KT CAVOK
TEMPO 2823/2904 5000 BR PROB30 2900/2904 1500 BR BKN005

Example: see airport list